Time;durP1;ratioP1;P1;durP2;ratioP2;P2;SDS_P1;SDS_P2;PMS_P1;PMS_P2;Temp;Humidity;BMP_temperature;BMP_pressure;BME280_temperature;BME280_humidity;BME280_pressure;Samples;Min_cycle;Max_cycle;Signal;HPM_P1;HPM_P2
2021/09/19 00:02:07;;;;;;;6.95;6.35;;;;;;;;;;4988460;28;20057;-85
2021/09/19 00:04:32;;;;;;;6.32;5.80;;;;;;;;;;4991664;28;20034;-86
2021/09/19 00:06:57;;;;;;;6.10;5.40;;;;;;;;;;4974197;28;20030;-85
2021/09/19 00:09:23;;;;;;;7.13;6.43;;;;;;;;;;4954794;28;20031;-84
2021/09/19 00:11:48;;;;;;;7.38;6.68;;;;;;;;;;4960720;28;20077;-85
2021/09/19 00:14:14;;;;;;;6.32;5.82;;;;;;;;;;4994367;28;20168;-84
2021/09/19 00:16:39;;;;;;;7.25;6.57;;;;;;;;;;4980556;28;20026;-85
2021/09/19 00:19:04;;;;;;;9.35;6.97;;;;;;;;;;5007762;28;20022;-85
2021/09/19 00:21:29;;;;;;;7.30;6.70;;;;;;;;;;4994289;28;20479;-85
2021/09/19 00:23:55;;;;;;;7.45;6.72;;;;;;;;;;4990481;28;20030;-85
2021/09/19 00:26:20;;;;;;;7.60;6.93;;;;;;;;;;4994327;28;20033;-85
2021/09/19 00:28:45;;;;;;;8.75;7.57;;;;;;;;;;4994038;28;20056;-85
2021/09/19 00:31:10;;;;;;;6.75;6.15;;;;;;;;;;4993020;28;20022;-85
2021/09/19 00:33:35;;;;;;;8.25;7.45;;;;;;;;;;5011661;28;20030;-85
2021/09/19 00:36:01;;;;;;;7.55;6.93;;;;;;;;;;4995046;28;20030;-85
2021/09/19 00:38:26;;;;;;;7.53;6.63;;;;;;;;;;4961253;28;20030;-85
2021/09/19 00:40:51;;;;;;;8.40;6.80;;;;;;;;;;4961426;28;20033;-85
2021/09/19 00:43:16;;;;;;;6.68;6.18;;;;;;;;;;4957863;28;20027;-86
2021/09/19 00:45:41;;;;;;;7.20;6.50;;;;;;;;;;4994554;28;20021;-85
2021/09/19 00:48:07;;;;;;;7.22;5.90;;;;;;;;;;4958047;28;20535;-86
2021/09/19 00:50:32;;;;;;;5.82;5.32;;;;;;;;;;4973516;28;20526;-85
2021/09/19 00:52:58;;;;;;;5.38;4.97;;;;;;;;;;4980659;28;20165;-86
2021/09/19 00:55:23;;;;;;;5.10;4.60;;;;;;;;;;4960812;28;20022;-85
2021/09/19 00:57:50;;;;;;;5.78;4.15;;;;;;;;;;4995209;28;20014;-86
2021/09/19 01:00:16;;;;;;;5.32;4.82;;;;;;;;;;4977515;28;20498;-85
2021/09/19 01:02:42;;;;;;;4.65;4.25;;;;;;;;;;4978149;28;20129;-85
2021/09/19 01:05:08;;;;;;;5.38;4.45;;;;;;;;;;4980030;28;20086;-86
2021/09/19 01:07:33;;;;;;;3.95;3.65;;;;;;;;;;4968905;28;20496;-84
2021/09/19 01:09:59;;;;;;;4.47;4.07;;;;;;;;;;4994751;28;20026;-85
2021/09/19 01:12:24;;;;;;;4.40;4.00;;;;;;;;;;4976286;28;20014;-84
2021/09/19 01:14:49;;;;;;;5.18;4.07;;;;;;;;;;5000109;28;20058;-85
2021/09/19 01:17:16;;;;;;;5.85;4.95;;;;;;;;;;4972394;28;20026;-85
2021/09/19 01:19:44;;;;;;;4.07;3.65;;;;;;;;;;4994371;28;20022;-85
2021/09/19 01:22:09;;;;;;;6.00;4.82;;;;;;;;;;4994341;28;20113;-86
2021/09/19 01:24:35;;;;;;;4.18;3.80;;;;;;;;;;4992779;28;20191;-85
2021/09/19 01:27:00;;;;;;;4.95;4.00;;;;;;;;;;4976654;28;20022;-85
2021/09/19 01:29:25;;;;;;;4.10;3.75;;;;;;;;;;4976087;28;20058;-85
2021/09/19 01:31:50;;;;;;;4.30;3.97;;;;;;;;;;4994026;28;20530;-85
2021/09/19 01:34:16;;;;;;;4.30;3.83;;;;;;;;;;4960180;28;20049;-85
2021/09/19 01:36:41;;;;;;;6.78;4.40;;;;;;;;;;4990931;28;20035;-86
2021/09/19 01:39:07;;;;;;;7.32;4.30;;;;;;;;;;4976136;28;20022;-85
2021/09/19 01:41:32;;;;;;;5.85;3.22;;;;;;;;;;5009393;28;20026;-85
2021/09/19 01:43:57;;;;;;;7.18;5.03;;;;;;;;;;4972337;28;20053;-85
2021/09/19 01:46:23;;;;;;;4.88;4.10;;;;;;;;;;4994340;28;20472;-86
2021/09/19 01:48:48;;;;;;;4.45;4.05;;;;;;;;;;4959592;28;20485;-86
2021/09/19 01:51:13;;;;;;;5.60;4.60;;;;;;;;;;4956564;28;20027;-85
2021/09/19 01:53:39;;;;;;;5.65;5.15;;;;;;;;;;4969464;28;20031;-86
2021/09/19 01:56:04;;;;;;;5.40;4.85;;;;;;;;;;4976300;28;20094;-85
2021/09/19 01:58:29;;;;;;;6.57;4.47;;;;;;;;;;4962358;28;20048;-86
2021/09/19 02:00:55;;;;;;;4.97;4.57;;;;;;;;;;4976579;28;20014;-86
2021/09/19 02:03:20;;;;;;;5.82;5.00;;;;;;;;;;4991253;28;20560;-85
2021/09/19 02:05:46;;;;;;;6.10;4.40;;;;;;;;;;4975883;28;20030;-85
2021/09/19 02:08:11;;;;;;;7.10;4.55;;;;;;;;;;5000821;28;20026;-86
2021/09/19 02:10:36;;;;;;;6.18;5.63;;;;;;;;;;4990894;28;20094;-85
2021/09/19 02:13:02;;;;;;;6.70;5.53;;;;;;;;;;4987594;28;20045;-85
2021/09/19 02:15:27;;;;;;;5.70;4.82;;;;;;;;;;4992183;28;20041;-85
2021/09/19 02:17:53;;;;;;;6.95;5.35;;;;;;;;;;4956535;28;20041;-86
2021/09/19 02:20:18;;;;;;;6.00;5.05;;;;;;;;;;4965557;28;20075;-86
2021/09/19 02:22:44;;;;;;;8.40;5.90;;;;;;;;;;4993426;28;20018;-85
2021/09/19 02:25:10;;;;;;;6.68;5.32;;;;;;;;;;4975730;28;20042;-86
2021/09/19 02:27:35;;;;;;;5.65;5.15;;;;;;;;;;4975179;28;20030;-85
2021/09/19 02:30:01;;;;;;;7.55;6.03;;;;;;;;;;4975113;28;20480;-85
2021/09/19 02:32:27;;;;;;;6.88;6.18;;;;;;;;;;4976009;28;20100;-85
2021/09/19 02:34:52;;;;;;;9.30;6.50;;;;;;;;;;4975567;28;20629;-86
2021/09/19 02:37:17;;;;;;;7.40;6.47;;;;;;;;;;5000528;28;20080;-85
2021/09/19 02:39:42;;;;;;;8.02;5.70;;;;;;;;;;4989932;28;20038;-85
2021/09/19 02:42:07;;;;;;;6.13;5.47;;;;;;;;;;4992277;28;20034;-85
2021/09/19 02:44:33;;;;;;;7.40;5.50;;;;;;;;;;4970636;28;20037;-85
2021/09/19 02:46:58;;;;;;;5.75;5.25;;;;;;;;;;4989365;28;20054;-85
2021/09/19 02:49:23;;;;;;;5.55;5.05;;;;;;;;;;4977048;28;20495;-85
2021/09/19 02:51:48;;;;;;;5.93;4.75;;;;;;;;;;4974237;28;20023;-84
2021/09/19 02:54:13;;;;;;;5.30;4.80;;;;;;;;;;4975277;28;20392;-85
2021/09/19 02:56:39;;;;;;;6.30;5.07;;;;;;;;;;4975197;28;20022;-85
2021/09/19 02:59:04;;;;;;;6.63;5.27;;;;;;;;;;4993706;28;20034;-84
2021/09/19 03:01:29;;;;;;;7.15;5.47;;;;;;;;;;4975209;28;20788;-85
2021/09/19 03:03:54;;;;;;;6.55;5.65;;;;;;;;;;4992658;28;20450;-84
2021/09/19 03:06:21;;;;;;;6.68;5.97;;;;;;;;;;4958695;28;20092;-84
2021/09/19 03:08:47;;;;;;;8.00;6.65;;;;;;;;;;4992544;28;20046;-84
2021/09/19 03:11:12;;;;;;;6.85;5.53;;;;;;;;;;4959424;28;20048;-86
2021/09/19 03:13:37;;;;;;;6.45;5.80;;;;;;;;;;4954417;28;20469;-85
2021/09/19 03:16:03;;;;;;;7.57;6.17;;;;;;;;;;4956188;28;20042;-85
2021/09/19 03:18:28;;;;;;;6.45;5.95;;;;;;;;;;4973653;28;20360;-85
2021/09/19 03:20:53;;;;;;;8.38;6.63;;;;;;;;;;4987306;28;20057;-86
2021/09/19 03:23:18;;;;;;;9.48;6.72;;;;;;;;;;4958854;28;20399;-86
2021/09/19 03:25:43;;;;;;;8.98;7.95;;;;;;;;;;4990890;28;20066;-85
2021/09/19 03:28:08;;;;;;;8.20;6.38;;;;;;;;;;4990817;28;20061;-86
2021/09/19 03:30:34;;;;;;;7.50;6.80;;;;;;;;;;4991745;28;20023;-85
2021/09/19 03:32:59;;;;;;;7.65;6.40;;;;;;;;;;4998525;28;20402;-85
2021/09/19 03:35:24;;;;;;;7.28;6.57;;;;;;;;;;4976133;28;20054;-85
2021/09/19 03:37:49;;;;;;;8.05;6.35;;;;;;;;;;4990881;28;20480;-85
2021/09/19 03:40:15;;;;;;;7.07;6.38;;;;;;;;;;5005197;28;20022;-86
2021/09/19 03:42:40;;;;;;;7.38;6.68;;;;;;;;;;4971219;28;20680;-85
2021/09/19 03:45:06;;;;;;;7.30;6.60;;;;;;;;;;4973352;28;20140;-85
2021/09/19 03:47:33;;;;;;;8.43;7.63;;;;;;;;;;4992032;28;20407;-85
2021/09/19 03:49:58;;;;;;;8.23;6.70;;;;;;;;;;4991062;28;20022;-84
2021/09/19 03:52:23;;;;;;;11.18;7.93;;;;;;;;;;4980636;28;20044;-87
2021/09/19 03:54:48;;;;;;;9.65;8.68;;;;;;;;;;4978185;28;20022;-87
2021/09/19 03:57:13;;;;;;;9.50;6.85;;;;;;;;;;4962375;28;20022;-86
2021/09/19 03:59:39;;;;;;;10.50;8.48;;;;;;;;;;4978342;28;20484;-86
2021/09/19 04:02:04;;;;;;;10.52;9.52;;;;;;;;;;4977589;28;20034;-87
2021/09/19 04:04:30;;;;;;;10.18;8.23;;;;;;;;;;4958737;28;20040;-86
2021/09/19 04:06:55;;;;;;;8.90;7.85;;;;;;;;;;5002092;28;20022;-86
2021/09/19 04:09:20;;;;;;;8.20;7.50;;;;;;;;;;4992998;28;20073;-86
2021/09/19 04:11:46;;;;;;;8.93;8.02;;;;;;;;;;4992724;28;20023;-86
2021/09/19 04:14:11;;;;;;;10.95;8.10;;;;;;;;;;4991961;28;20459;-86
2021/09/19 04:16:36;;;;;;;8.23;7.43;;;;;;;;;;4961890;28;20058;-86
2021/09/19 04:19:01;;;;;;;8.63;7.72;;;;;;;;;;4992603;28;20037;-86
2021/09/19 04:21:27;;;;;;;8.40;7.65;;;;;;;;;;4977828;28;20053;-86
2021/09/19 04:23:52;;;;;;;8.70;7.60;;;;;;;;;;4962132;28;20031;-85
2021/09/19 04:26:17;;;;;;;8.88;8.07;;;;;;;;;;4961529;28;20139;-85
2021/09/19 04:28:42;;;;;;;10.15;8.00;;;;;;;;;;4977653;28;20407;-85
2021/09/19 04:31:08;;;;;;;11.13;8.60;;;;;;;;;;4994350;28;20054;-85
2021/09/19 04:33:33;;;;;;;9.45;8.55;;;;;;;;;;4958212;28;20026;-85
2021/09/19 04:35:58;;;;;;;8.32;7.60;;;;;;;;;;4958175;28;20030;-85
2021/09/19 04:38:23;;;;;;;9.20;8.25;;;;;;;;;;4958671;28;20125;-85
2021/09/19 04:40:48;;;;;;;8.80;7.90;;;;;;;;;;4958425;28;20027;-85
2021/09/19 04:43:14;;;;;;;10.48;8.10;;;;;;;;;;4975284;28;20436;-85
2021/09/19 04:45:39;;;;;;;10.18;9.18;;;;;;;;;;4977317;28;20026;-85
2021/09/19 04:48:05;;;;;;;12.65;9.30;;;;;;;;;;4977513;28;20023;-85
2021/09/19 04:50:30;;;;;;;10.15;9.13;;;;;;;;;;5008227;28;20167;-85
2021/09/19 04:52:55;;;;;;;8.75;7.47;;;;;;;;;;4977680;28;20023;-85
2021/09/19 04:55:20;;;;;;;7.82;7.05;;;;;;;;;;4994745;28;20022;-85
2021/09/19 04:57:46;;;;;;;5.43;4.93;;;;;;;;;;4977640;28;20472;-85
2021/09/19 05:00:11;;;;;;;5.95;3.90;;;;;;;;;;4958362;28;20027;-86
2021/09/19 05:02:36;;;;;;;6.20;3.58;;;;;;;;;;4977797;28;20026;-84
2021/09/19 05:05:02;;;;;;;3.40;3.10;;;;;;;;;;4993975;28;20026;-85
2021/09/19 05:07:27;;;;;;;4.10;3.63;;;;;;;;;;4994560;28;20034;-84
2021/09/19 05:09:52;;;;;;;4.10;3.22;;;;;;;;;;4960915;28;20057;-84
2021/09/19 05:12:17;;;;;;;9.18;3.78;;;;;;;;;;4958369;28;20105;-84
2021/09/19 05:14:43;;;;;;;3.75;3.30;;;;;;;;;;4970161;28;20030;-84
2021/09/19 05:17:08;;;;;;;5.15;3.03;;;;;;;;;;4977029;28;20504;-83
2021/09/19 05:19:33;;;;;;;3.25;2.90;;;;;;;;;;4991940;28;20444;-83
2021/09/19 05:21:58;;;;;;;3.42;2.90;;;;;;;;;;4960230;28;20030;-84
2021/09/19 05:24:23;;;;;;;3.38;2.60;;;;;;;;;;4959218;28;20503;-85
2021/09/19 05:26:49;;;;;;;3.88;2.90;;;;;;;;;;4975619;28;20129;-85
2021/09/19 05:29:14;;;;;;;3.97;2.22;;;;;;;;;;4989229;28;20423;-85
2021/09/19 05:31:39;;;;;;;2.50;2.28;;;;;;;;;;4978060;28;20026;-84
2021/09/19 05:34:05;;;;;;;3.35;2.60;;;;;;;;;;4992981;28;20081;-84
2021/09/19 05:36:31;;;;;;;4.10;2.22;;;;;;;;;;4984870;28;20023;-84
2021/09/19 05:38:56;;;;;;;2.70;2.28;;;;;;;;;;5002746;28;20030;-86
2021/09/19 05:41:21;;;;;;;2.90;2.60;;;;;;;;;;4974626;28;20034;-86
2021/09/19 05:43:46;;;;;;;4.35;2.78;;;;;;;;;;4992475;28;20030;-84
2021/09/19 05:46:11;;;;;;;3.05;2.40;;;;;;;;;;4976996;28;20026;-84
2021/09/19 05:48:38;;;;;;;3.45;2.42;;;;;;;;;;4993275;28;20025;-84
2021/09/19 05:51:04;;;;;;;4.47;2.22;;;;;;;;;;4975671;28;20026;-84
2021/09/19 05:53:29;;;;;;;4.05;2.60;;;;;;;;;;4976234;28;20022;-84
2021/09/19 05:55:54;;;;;;;3.22;2.53;;;;;;;;;;4977139;28;20536;-84
2021/09/19 05:58:20;;;;;;;3.40;2.55;;;;;;;;;;4989941;28;20564;-83
2021/09/19 06:00:45;;;;;;;2.85;2.20;;;;;;;;;;4976415;28;20034;-84
2021/09/19 06:03:10;;;;;;;3.13;2.50;;;;;;;;;;4975668;28;20025;-84
2021/09/19 06:05:35;;;;;;;4.00;2.50;;;;;;;;;;4975719;28;20025;-84
2021/09/19 06:08:01;;;;;;;3.83;2.97;;;;;;;;;;4958523;28;20122;-83
2021/09/19 06:10:26;;;;;;;4.65;2.55;;;;;;;;;;4960266;28;20037;-84
2021/09/19 06:12:51;;;;;;;3.75;2.60;;;;;;;;;;4955128;28;20027;-84
2021/09/19 06:15:16;;;;;;;5.63;3.20;;;;;;;;;;4988468;28;20042;-84
2021/09/19 06:17:42;;;;;;;3.35;2.40;;;;;;;;;;4976049;28;20109;-84
2021/09/19 06:20:07;;;;;;;3.92;2.40;;;;;;;;;;5008303;28;20464;-84
2021/09/19 06:22:33;;;;;;;4.75;2.40;;;;;;;;;;4975517;28;20034;-85
2021/09/19 06:24:58;;;;;;;4.00;1.90;;;;;;;;;;4959757;28;20042;-84
2021/09/19 06:27:23;;;;;;;3.30;2.42;;;;;;;;;;4992914;28;20014;-85
2021/09/19 06:29:49;;;;;;;2.17;1.63;;;;;;;;;;4975682;28;20057;-85
2021/09/19 06:32:15;;;;;;;2.55;2.25;;;;;;;;;;4980214;28;20133;-85
2021/09/19 06:34:40;;;;;;;3.08;2.13;;;;;;;;;;4964166;28;20035;-84
2021/09/19 06:37:06;;;;;;;3.80;2.00;;;;;;;;;;4958657;28;20022;-85
2021/09/19 06:39:31;;;;;;;2.97;2.22;;;;;;;;;;4960008;28;20477;-86
2021/09/19 06:41:57;;;;;;;2.53;1.63;;;;;;;;;;4976488;28;20034;-86
2021/09/19 06:44:22;;;;;;;2.30;2.10;;;;;;;;;;4959470;28;20057;-87
2021/09/19 06:46:47;;;;;;;3.08;1.92;;;;;;;;;;4959921;28;20444;-85
2021/09/19 06:49:12;;;;;;;2.80;1.92;;;;;;;;;;4974514;28;20361;-83
2021/09/19 06:51:38;;;;;;;3.72;2.30;;;;;;;;;;4974836;28;20481;-83
2021/09/19 06:54:03;;;;;;;3.08;2.00;;;;;;;;;;4958953;28;20048;-84
2021/09/19 06:56:28;;;;;;;3.17;2.10;;;;;;;;;;5007929;28;20480;-83
2021/09/19 06:58:53;;;;;;;2.65;1.70;;;;;;;;;;5006862;28;20030;-80
2021/09/19 07:01:21;;;;;;;3.85;2.38;;;;;;;;;;4975244;28;20066;-79
2021/09/19 07:03:47;;;;;;;2.25;1.88;;;;;;;;;;4959173;28;20092;-79
2021/09/19 07:06:12;;;;;;;5.00;2.60;;;;;;;;;;4974668;28;20430;-80
2021/09/19 07:08:37;;;;;;;2.90;2.00;;;;;;;;;;4975305;28;20118;-80
2021/09/19 07:11:02;;;;;;;3.50;2.10;;;;;;;;;;4976619;28;20035;-81
2021/09/19 07:13:28;;;;;;;4.05;2.63;;;;;;;;;;4967418;28;20027;-81
2021/09/19 07:15:53;;;;;;;2.25;1.85;;;;;;;;;;4982073;28;20023;-82
2021/09/19 07:18:19;;;;;;;2.47;1.90;;;;;;;;;;4955826;28;20492;-82
2021/09/19 07:20:44;;;;;;;2.75;2.10;;;;;;;;;;4948674;28;20117;-82
2021/09/19 07:23:10;;;;;;;3.17;2.17;;;;;;;;;;5007433;28;20113;-83
2021/09/19 07:25:35;;;;;;;3.67;1.85;;;;;;;;;;4997209;28;20117;-82
2021/09/19 07:28:03;;;;;;;2.42;2.00;;;;;;;;;;5002548;28;20125;-82
2021/09/19 07:30:28;;;;;;;2.15;2.00;;;;;;;;;;4976771;28;20038;-82
2021/09/19 07:32:54;;;;;;;2.00;1.67;;;;;;;;;;4984021;28;20392;-78
2021/09/19 07:35:19;;;;;;;1.80;1.58;;;;;;;;;;4991786;28;20451;-82
2021/09/19 07:37:45;;;;;;;2.95;1.77;;;;;;;;;;4958100;28;20018;-81
2021/09/19 07:40:10;;;;;;;3.40;2.20;;;;;;;;;;4974434;28;20026;-82
2021/09/19 07:42:36;;;;;;;2.55;2.30;;;;;;;;;;4971811;28;20042;-83
2021/09/19 07:45:01;;;;;;;3.13;2.47;;;;;;;;;;4954957;28;20027;-80
2021/09/19 07:47:26;;;;;;;2.80;1.77;;;;;;;;;;4985763;28;20042;-86
2021/09/19 07:49:52;;;;;;;2.10;1.65;;;;;;;;;;4991029;28;20069;-85
2021/09/19 07:52:18;;;;;;;2.58;2.20;;;;;;;;;;4973867;28;20427;-82
2021/09/19 07:54:43;;;;;;;1.90;1.70;;;;;;;;;;5007709;28;20022;-82
2021/09/19 07:57:08;;;;;;;2.38;1.83;;;;;;;;;;4997131;28;20086;-82
2021/09/19 07:59:34;;;;;;;2.28;1.70;;;;;;;;;;4956156;28;20027;-82
2021/09/19 08:01:59;;;;;;;1.58;1.35;;;;;;;;;;4989176;28;20037;-82
2021/09/19 08:04:24;;;;;;;3.72;2.10;;;;;;;;;;4974751;28;20495;-86
2021/09/19 08:06:49;;;;;;;1.67;1.58;;;;;;;;;;4992767;28;20129;-91
2021/09/19 08:09:15;;;;;;;2.42;1.90;;;;;;;;;;4955643;28;20076;-82
2021/09/19 08:11:40;;;;;;;2.63;1.80;;;;;;;;;;4955621;28;20018;-81
2021/09/19 08:14:06;;;;;;;2.42;1.50;;;;;;;;;;4954286;28;20026;-78
2021/09/19 08:16:38;;;;;;;2.90;1.67;;;;;;;;;;4969830;28;20027;-78
2021/09/19 08:19:04;;;;;;;4.85;2.15;;;;;;;;;;4972685;28;20037;-83
2021/09/19 08:21:30;;;;;;;1.80;1.50;;;;;;;;;;4988381;28;20030;-84
2021/09/19 08:23:55;;;;;;;2.50;1.85;;;;;;;;;;4972278;28;20022;-83
2021/09/19 08:26:20;;;;;;;2.75;1.88;;;;;;;;;;4971211;28;20023;-82
2021/09/19 08:28:45;;;;;;;2.63;2.42;;;;;;;;;;4975158;28;20047;-84
2021/09/19 08:31:11;;;;;;;2.42;2.22;;;;;;;;;;4989820;28;20122;-80
2021/09/19 08:33:36;;;;;;;2.85;2.08;;;;;;;;;;4978425;28;20053;-83
2021/09/19 08:36:01;;;;;;;2.53;1.95;;;;;;;;;;4970646;28;20030;-78
2021/09/19 08:38:26;;;;;;;2.55;2.05;;;;;;;;;;4990183;28;20404;-79
2021/09/19 08:40:52;;;;;;;2.00;1.90;;;;;;;;;;4977703;28;20027;-81
2021/09/19 08:43:18;;;;;;;3.10;2.00;;;;;;;;;;4985320;28;20034;-83
2021/09/19 08:45:47;;;;;;;3.17;2.08;;;;;;;;;;4967877;28;20034;-83
2021/09/19 08:48:14;;;;;;;3.70;2.08;;;;;;;;;;4960310;28;20022;-83
2021/09/19 08:50:39;;;;;;;4.38;1.73;;;;;;;;;;4991916;28;20519;-82
2021/09/19 08:53:04;;;;;;;3.20;2.30;;;;;;;;;;5005617;28;20022;-82
2021/09/19 08:55:29;;;;;;;4.22;2.25;;;;;;;;;;4976537;28;20027;-82
2021/09/19 08:57:55;;;;;;;1.80;1.42;;;;;;;;;;4960878;28;20072;-81
2021/09/19 09:00:20;;;;;;;2.55;1.80;;;;;;;;;;4976615;28;20032;-81
2021/09/19 09:02:50;;;;;;;2.67;1.60;;;;;;;;;;4960402;28;20040;-81
2021/09/19 09:05:19;;;;;;;2.30;2.10;;;;;;;;;;4976109;28;20030;-82
2021/09/19 09:07:45;;;;;;;2.47;1.90;;;;;;;;;;4972563;28;20030;-81
2021/09/19 09:10:10;;;;;;;3.92;1.90;;;;;;;;;;4976596;28;20026;-82
2021/09/19 09:12:36;;;;;;;1.98;1.75;;;;;;;;;;4991566;28;20203;-81
2021/09/19 09:15:03;;;;;;;2.35;1.70;;;;;;;;;;4968590;28;20038;-82
2021/09/19 09:17:29;;;;;;;2.05;1.85;;;;;;;;;;4976354;28;20029;-82
2021/09/19 09:19:55;;;;;;;2.13;1.92;;;;;;;;;;4959652;28;20081;-82
2021/09/19 09:22:21;;;;;;;3.17;1.92;;;;;;;;;;4959521;28;20040;-81
2021/09/19 09:25:01;;;;;;;1.90;1.67;;;;;;;;;;4959128;28;20456;-81
2021/09/19 09:27:27;;;;;;;2.60;1.80;;;;;;;;;;4974316;28;20469;-82
2021/09/19 09:30:07;;;;;;;2.20;1.85;;;;;;;;;;4975730;28;20046;-82
2021/09/19 09:32:47;;;;;;;1.88;1.75;;;;;;;;;;4973156;28;20064;-84
2021/09/19 09:35:13;;;;;;;3.05;2.22;;;;;;;;;;4974543;28;20025;-82
2021/09/19 09:37:39;;;;;;;3.13;2.28;;;;;;;;;;4977350;28;20010;-82
2021/09/19 09:40:13;;;;;;;2.03;1.83;;;;;;;;;;4977254;28;20033;-81
2021/09/19 09:42:38;;;;;;;3.03;2.15;;;;;;;;;;5002769;28;20113;-81
2021/09/19 09:45:04;;;;;;;4.10;2.33;;;;;;;;;;5007668;28;20168;-81
2021/09/19 09:47:31;;;;;;;3.35;2.40;;;;;;;;;;4992563;28;20034;-83
2021/09/19 09:49:58;;;;;;;2.75;2.33;;;;;;;;;;4976030;28;20034;-82
2021/09/19 09:52:31;;;;;;;2.75;2.05;;;;;;;;;;4975606;28;20423;-83
2021/09/19 09:55:01;;;;;;;3.42;2.45;;;;;;;;;;4971851;28;20053;-82
2021/09/19 09:57:35;;;;;;;2.80;2.60;;;;;;;;;;4974920;28;20022;-81
2021/09/19 10:00:06;;;;;;;2.53;2.08;;;;;;;;;;4971265;28;20031;-82
2021/09/19 10:02:32;;;;;;;2.50;2.08;;;;;;;;;;4975312;28;20053;-82
2021/09/19 10:04:58;;;;;;;2.65;2.22;;;;;;;;;;4973093;28;20022;-84
2021/09/19 10:07:23;;;;;;;2.20;2.00;;;;;;;;;;4975097;28;20057;-83
2021/09/19 10:09:48;;;;;;;2.72;2.28;;;;;;;;;;4974393;28;20041;-84
2021/09/19 10:12:14;;;;;;;2.40;2.20;;;;;;;;;;4975974;28;20022;-84
2021/09/19 10:14:39;;;;;;;2.47;2.10;;;;;;;;;;4971323;28;20108;-84
2021/09/19 10:17:05;;;;;;;2.90;2.60;;;;;;;;;;4992163;28;20022;-85
2021/09/19 10:19:30;;;;;;;2.45;2.25;;;;;;;;;;4973601;28;20037;-86
2021/09/19 10:21:57;;;;;;;2.80;2.42;;;;;;;;;;4958745;28;20089;-86
2021/09/19 10:24:22;;;;;;;2.30;2.13;;;;;;;;;;4974977;28;20019;-84
2021/09/19 10:26:52;;;;;;;2.72;2.00;;;;;;;;;;5006017;28;20064;-84
2021/09/19 10:29:21;;;;;;;2.63;2.42;;;;;;;;;;4992060;28;20562;-85
2021/09/19 10:31:47;;;;;;;2.45;2.22;;;;;;;;;;4972025;28;20032;-84
2021/09/19 10:34:26;;;;;;;2.28;2.08;;;;;;;;;;4992149;28;20427;-84
2021/09/19 10:36:55;;;;;;;2.75;2.50;;;;;;;;;;4971866;28;20025;-85
2021/09/19 10:39:22;;;;;;;2.60;2.40;;;;;;;;;;4972907;28;20157;-84
2021/09/19 10:42:06;;;;;;;3.85;2.80;;;;;;;;;;4975200;28;20026;-83
2021/09/19 10:44:35;;;;;;;3.17;2.80;;;;;;;;;;5005342;28;20026;-83
2021/09/19 10:47:04;;;;;;;3.78;3.33;;;;;;;;;;4974983;28;20061;-83
2021/09/19 10:49:32;;;;;;;3.95;3.45;;;;;;;;;;4973312;28;20050;-84
2021/09/19 10:52:00;;;;;;;3.35;3.05;;;;;;;;;;4991961;28;20105;-82
2021/09/19 10:54:44;;;;;;;5.28;4.03;;;;;;;;;;4974691;28;20480;-83
2021/09/19 10:57:32;;;;;;;4.05;3.67;;;;;;;;;;4967945;28;20023;-84
2021/09/19 11:00:12;;;;;;;4.32;3.55;;;;;;;;;;4972344;28;20030;-83
2021/09/19 11:02:39;;;;;;;5.20;4.80;;;;;;;;;;4974137;28;20026;-83
2021/09/19 11:05:23;;;;;;;6.20;5.60;;;;;;;;;;4974335;28;20041;-83
2021/09/19 11:08:03;;;;;;;5.15;4.75;;;;;;;;;;4990771;28;20022;-82
2021/09/19 11:10:28;;;;;;;5.18;4.78;;;;;;;;;;4973918;28;20391;-86
2021/09/19 11:12:54;;;;;;;5.50;5.10;;;;;;;;;;4987922;28;20513;-84
2021/09/19 11:15:23;;;;;;;6.72;6.22;;;;;;;;;;4957521;28;20022;-85
2021/09/19 11:17:49;;;;;;;5.68;5.28;;;;;;;;;;4974362;28;20029;-84
2021/09/19 11:20:16;;;;;;;6.43;5.93;;;;;;;;;;4974479;28;20022;-85
2021/09/19 11:22:48;;;;;;;5.22;4.82;;;;;;;;;;4973714;28;20492;-83
2021/09/19 11:25:14;;;;;;;5.65;5.20;;;;;;;;;;4970264;28;20396;-85
2021/09/19 11:27:41;;;;;;;5.53;5.03;;;;;;;;;;4957976;28;20077;-85
2021/09/19 11:30:06;;;;;;;5.50;5.00;;;;;;;;;;4974511;28;20050;-92
2021/09/19 11:32:32;;;;;;;5.25;4.85;;;;;;;;;;4977051;28;20512;-88
2021/09/19 11:34:58;;;;;;;5.88;5.35;;;;;;;;;;4992231;28;20026;-89
2021/09/19 11:37:25;;;;;;;6.45;5.85;;;;;;;;;;4974762;28;20535;-91
2021/09/19 11:39:50;;;;;;;6.88;6.28;;;;;;;;;;4976223;28;20054;-88
2021/09/19 11:42:15;;;;;;;7.40;6.70;;;;;;;;;;4973504;28;20061;-87
2021/09/19 11:44:46;;;;;;;5.82;5.38;;;;;;;;;;5013352;28;20033;-87
2021/09/19 11:47:12;;;;;;;7.32;6.35;;;;;;;;;;4975124;28;20061;-87
2021/09/19 11:49:39;;;;;;;5.68;5.25;;;;;;;;;;4974259;28;20034;-86
2021/09/19 11:52:05;;;;;;;6.15;5.65;;;;;;;;;;5007608;28;20030;-87
2021/09/19 11:54:30;;;;;;;6.95;6.35;;;;;;;;;;4984756;28;20388;-86
2021/09/19 11:56:55;;;;;;;5.67;5.23;;;;;;;;;;4955056;28;20038;-85
2021/09/19 11:59:21;;;;;;;6.80;6.30;;;;;;;;;;4974268;28;20320;-86
2021/09/19 12:01:47;;;;;;;6.00;5.50;;;;;;;;;;4958154;28;20396;-86
2021/09/19 12:04:13;;;;;;;4.93;4.53;;;;;;;;;;4974869;28;20019;-86
2021/09/19 12:06:39;;;;;;;5.50;5.13;;;;;;;;;;4957542;28;20026;-86
2021/09/19 12:09:17;;;;;;;5.28;4.88;;;;;;;;;;4973027;28;20034;-87
2021/09/19 12:11:44;;;;;;;5.60;5.10;;;;;;;;;;4974329;28;20424;-88
2021/09/19 12:14:19;;;;;;;5.93;5.53;;;;;;;;;;4983854;28;20026;-86
2021/09/19 12:17:02;;;;;;;6.10;5.50;;;;;;;;;;4972908;28;20427;-86
2021/09/19 12:19:28;;;;;;;5.65;5.25;;;;;;;;;;4976966;28;20121;-86
2021/09/19 12:22:13;;;;;;;5.93;5.43;;;;;;;;;;4977864;28;20551;-87
2021/09/19 12:24:38;;;;;;;;;;;;;;;;;;4977891;28;20063;-86
2021/09/19 12:27:23;;;;;;;4.80;4.50;;;;;;;;;;4995600;28;19910;-87
2021/09/19 12:29:59;;;;;;;5.43;5.05;;;;;;;;;;4976815;28;20077;-85
2021/09/19 12:32:31;;;;;;;6.03;5.53;;;;;;;;;;4978101;28;20427;-84
2021/09/19 12:35:00;;;;;;;5.97;5.53;;;;;;;;;;4977836;28;20042;-84
2021/09/19 12:37:26;;;;;;;5.78;5.38;;;;;;;;;;4977299;28;20030;-84
2021/09/19 12:40:00;;;;;;;5.78;5.28;;;;;;;;;;4976854;28;20032;-84
2021/09/19 12:42:28;;;;;;;5.20;4.80;;;;;;;;;;4976666;28;20022;-82
2021/09/19 12:44:56;;;;;;;5.80;5.25;;;;;;;;;;4975850;28;20171;-82
2021/09/19 12:47:21;;;;;;;6.20;5.70;;;;;;;;;;4977317;28;20155;-82
2021/09/19 12:49:46;;;;;;;5.68;5.18;;;;;;;;;;4977077;28;20441;-82
2021/09/19 12:52:16;;;;;;;6.13;5.63;;;;;;;;;;4976889;28;20023;-83
2021/09/19 12:54:49;;;;;;;5.20;4.90;;;;;;;;;;4977720;28;20507;-82
2021/09/19 12:57:15;;;;;;;5.63;5.22;;;;;;;;;;4994953;28;20022;-82
2021/09/19 12:59:40;;;;;;;5.20;4.88;;;;;;;;;;4958250;28;20045;-83
2021/09/19 13:02:05;;;;;;;5.38;4.88;;;;;;;;;;4997598;28;20034;-83
2021/09/19 13:04:30;;;;;;;4.50;4.07;;;;;;;;;;4960966;28;20026;-83
2021/09/19 13:06:56;;;;;;;5.00;4.60;;;;;;;;;;4959884;28;20022;-82
2021/09/19 13:09:21;;;;;;;5.05;4.65;;;;;;;;;;4994024;28;21970;-82
2021/09/19 13:11:46;;;;;;;4.72;4.43;;;;;;;;;;4960668;28;20084;-82
2021/09/19 13:14:11;;;;;;;4.78;4.38;;;;;;;;;;4972704;28;20376;-83
2021/09/19 13:16:39;;;;;;;4.45;4.13;;;;;;;;;;4994143;28;20014;-82
2021/09/19 13:19:04;;;;;;;4.10;3.83;;;;;;;;;;4960186;28;20400;-82
2021/09/19 13:21:30;;;;;;;4.70;4.40;;;;;;;;;;4976305;28;20022;-82
2021/09/19 13:23:55;;;;;;;4.38;4.00;;;;;;;;;;4976422;28;20052;-82
2021/09/19 13:26:20;;;;;;;4.97;4.55;;;;;;;;;;4959592;28;20081;-84
2021/09/19 13:28:45;;;;;;;4.53;4.13;;;;;;;;;;4958979;28;20504;-82
2021/09/19 13:31:10;;;;;;;4.97;4.68;;;;;;;;;;4990251;28;20517;-83
2021/09/19 13:33:36;;;;;;;3.85;3.65;;;;;;;;;;4976369;28;20030;-83
2021/09/19 13:36:01;;;;;;;4.28;3.97;;;;;;;;;;4976154;28;20014;-83
2021/09/19 13:38:26;;;;;;;4.22;3.90;;;;;;;;;;4959890;28;20081;-83
2021/09/19 13:40:51;;;;;;;3.65;3.40;;;;;;;;;;4975694;28;20018;-84
2021/09/19 13:43:17;;;;;;;3.92;3.63;;;;;;;;;;4956448;28;20497;-83
2021/09/19 13:45:42;;;;;;;3.13;2.92;;;;;;;;;;4992531;28;20022;-84
2021/09/19 13:48:07;;;;;;;3.35;3.05;;;;;;;;;;4975718;28;20062;-84
2021/09/19 13:50:33;;;;;;;3.40;3.10;;;;;;;;;;4959165;28;20061;-83
2021/09/19 13:52:59;;;;;;;3.67;3.40;;;;;;;;;;4975851;28;20014;-83
2021/09/19 13:55:24;;;;;;;3.25;2.95;;;;;;;;;;4975849;28;20015;-82
2021/09/19 13:57:49;;;;;;;3.22;3.03;;;;;;;;;;4973246;28;20026;-83
2021/09/19 14:00:15;;;;;;;3.30;3.00;;;;;;;;;;4959674;28;20035;-83
2021/09/19 14:02:40;;;;;;;4.88;3.20;;;;;;;;;;4975927;28;20026;-83
2021/09/19 14:05:06;;;;;;;3.17;2.90;;;;;;;;;;4959518;28;20044;-83
2021/09/19 14:07:32;;;;;;;4.68;4.00;;;;;;;;;;4977712;28;20023;-83
2021/09/19 14:09:57;;;;;;;3.50;3.30;;;;;;;;;;4994081;28;20491;-83
2021/09/19 14:12:22;;;;;;;3.55;3.33;;;;;;;;;;4975973;28;20088;-83
2021/09/19 14:14:48;;;;;;;4.40;4.00;;;;;;;;;;4973000;28;20034;-83
2021/09/19 14:17:13;;;;;;;3.63;3.38;;;;;;;;;;4988286;28;20036;-83
2021/09/19 14:19:38;;;;;;;3.75;3.45;;;;;;;;;;4974486;28;20029;-87
2021/09/19 14:22:03;;;;;;;3.80;3.50;;;;;;;;;;4974799;28;20034;-82
2021/09/19 14:24:28;;;;;;;4.82;4.00;;;;;;;;;;4958958;28;20062;-84
2021/09/19 14:26:54;;;;;;;3.70;3.40;;;;;;;;;;4975249;28;20032;-83
2021/09/19 14:29:19;;;;;;;4.50;3.65;;;;;;;;;;4974384;28;20057;-84
2021/09/19 14:31:46;;;;;;;3.40;3.10;;;;;;;;;;5006323;28;20074;-81
2021/09/19 14:34:11;;;;;;;3.28;3.00;;;;;;;;;;4959416;28;20058;-82
2021/09/19 14:36:36;;;;;;;3.88;3.03;;;;;;;;;;4965242;28;20046;-80
2021/09/19 14:39:03;;;;;;;2.72;2.53;;;;;;;;;;4985380;28;20054;-78